Time;durP1;ratioP1;P1;durP2;ratioP2;P2;SDS_P1;SDS_P2;PMS_P1;PMS_P2;Temp;Humidity;BMP_temperature;BMP_pressure;BME280_temperature;BME280_humidity;BME280_pressure;Samples;Min_cycle;Max_cycle;Signal;HPM_P1;HPM_P2
2023/01/14 00:01:30;;;;;;;46.50;23.70;;;;;;;-0.06;78.96;101738.29;100941;1265;60014;-92
2023/01/14 00:04:01;;;;;;;48.40;23.10;;;;;;;-0.09;78.92;101735.02;105575;1274;76957;-93
2023/01/14 00:06:32;;;;;;;50.70;23.60;;;;;;;-0.09;78.73;101740.35;104789;1273;63865;-92
2023/01/14 00:09:09;;;;;;;53.90;23.30;;;;;;;-0.10;78.79;101739.13;105052;1279;73532;-90
2023/01/14 00:11:47;;;;;;;46.40;21.50;;;;;;;-0.10;78.72;101742.91;105292;1277;60977;-91
2023/01/14 00:14:30;;;;;;;42.20;20.80;;;;;;;-0.09;78.87;101744.64;105672;1273;61556;-93
2023/01/14 00:17:00;;;;;;;44.30;21.50;;;;;;;-0.07;78.98;101742.91;105309;1273;74153;-92
2023/01/14 00:19:27;;;;;;;56.50;25.20;;;;;;;-0.08;78.91;101747.23;105420;1274;65119;-93
2023/01/14 00:21:57;;;;;;;66.00;24.00;;;;;;;-0.07;78.99;101742.75;105721;1274;72349;-92
2023/01/14 00:24:25;;;;;;;38.00;21.10;;;;;;;-0.07;78.88;101740.86;107362;1274;59670;-92
2023/01/14 00:27:00;;;;;;;51.60;23.60;;;;;;;-0.07;78.80;101747.73;107842;1274;60984;-89
2023/01/14 00:29:30;;;;;;;50.30;23.50;;;;;;;-0.11;78.81;101740.16;108090;1273;71883;-91
2023/01/14 00:32:05;;;;;;;49.30;26.10;;;;;;;-0.11;78.78;101742.39;107490;1273;63916;-93
2023/01/14 00:34:36;;;;;;;46.60;21.80;;;;;;;-0.14;78.95;101738.27;106570;1273;72925;-93
2023/01/14 00:37:04;;;;;;;43.90;21.30;;;;;;;-0.14;78.79;101733.96;105612;1273;62433;-92
2023/01/14 00:39:33;;;;;;;58.50;21.00;;;;;;;-0.17;78.70;101737.73;105366;1273;60323;-94
2023/01/14 00:42:01;;;;;;;54.10;23.70;;;;;;;-0.19;78.90;101733.61;105672;1273;73585;-91
2023/01/14 00:44:29;;;;;;;48.50;19.60;;;;;;;-0.14;79.46;101732.59;105675;1272;63778;-91
2023/01/14 00:46:57;;;;;;;43.00;19.40;;;;;;;-0.06;79.46;101730.73;105535;1273;71697;-92
2023/01/14 00:49:25;;;;;;;46.80;21.40;;;;;;;0.02;79.19;101730.04;105497;1273;60730;-93
2023/01/14 00:51:53;;;;;;;44.70;20.00;;;;;;;0.04;79.00;101729.01;106406;1273;61104;-91
2023/01/14 00:54:22;;;;;;;40.00;21.30;;;;;;;0.05;78.94;101735.73;107053;1278;72375;-91
2023/01/14 00:56:50;;;;;;;42.70;22.60;;;;;;;0.03;78.69;101731.94;107742;1269;63806;-92
2023/01/14 00:59:20;;;;;;;59.30;23.90;;;;;;;0.02;78.65;101728.66;108461;1270;72674;-91
2023/01/14 01:01:48;;;;;;;50.80;22.80;;;;;;;-0.02;78.53;101724.71;108609;1270;60453;-92
2023/01/14 01:04:17;;;;;;;52.80;24.00;;;;;;;-0.03;78.42;101719.56;108577;1270;60909;-93
2023/01/14 01:06:45;;;;;;;50.20;21.10;;;;;;;-0.01;78.62;101716.98;107607;1269;72121;-92
2023/01/14 01:09:13;;;;;;;41.30;21.00;;;;;;;0.02;78.50;101717.14;105955;1270;64337;-92
2023/01/14 01:11:41;;;;;;;51.40;20.10;;;;;;;0.02;78.44;101705.11;105507;1273;73162;-93
2023/01/14 01:14:11;;;;;;;37.40;19.50;;;;;;;0.03;78.51;101708.39;105942;1273;60985;-92
2023/01/14 01:16:40;;;;;;;43.80;20.00;;;;;;;0.05;78.52;101706.34;105662;1279;60659;-91
2023/01/14 01:19:07;;;;;;;60.50;19.70;;;;;;;0.05;78.60;101701.52;105923;1274;74385;-90
2023/01/14 01:21:35;;;;;;;47.40;21.00;;;;;;;0.02;78.68;101701.69;106485;1274;62885;-90
2023/01/14 01:24:04;;;;;;;42.30;20.70;;;;;;;0.03;78.61;101709.23;106135;1273;73509;-91
2023/01/14 01:26:36;;;;;;;46.40;21.50;;;;;;;0.00;78.68;101703.91;106250;1273;59742;-91
2023/01/14 01:29:06;;;;;;;47.90;21.40;;;;;;;-0.01;78.69;101703.22;105611;1273;61224;-91
2023/01/14 01:31:34;;;;;;;46.30;22.20;;;;;;;-0.01;78.66;101697.55;106189;1273;73089;-92
2023/01/14 01:34:07;;;;;;;55.70;21.80;;;;;;;-0.03;78.61;101698.58;105956;1274;63765;-92
2023/01/14 01:36:36;;;;;;;46.30;21.20;;;;;;;-0.08;78.41;101697.71;105295;1274;73727;-92
2023/01/14 01:39:05;;;;;;;48.60;18.60;;;;;;;-0.11;78.67;101696.34;105038;1276;59974;-90
2023/01/14 01:41:36;;;;;;;46.50;19.90;;;;;;;-0.12;78.64;101697.02;104954;1278;60326;-93
2023/01/14 01:44:06;;;;;;;46.60;20.50;;;;;;;-0.15;78.67;101698.39;105219;1272;72463;-92
2023/01/14 01:46:40;;;;;;;44.60;18.80;;;;;;;-0.16;78.98;101694.09;107636;1268;63770;-93
2023/01/14 01:49:09;;;;;;;49.60;20.50;;;;;;;-0.15;79.14;101691.52;107610;1269;74366;-91
2023/01/14 01:52:00;;;;;;;45.80;19.80;;;;;;;-0.14;79.25;101692.72;108596;1270;60872;-93
2023/01/14 01:54:34;;;;;;;38.10;19.30;;;;;;;-0.18;79.28;101682.74;108265;1270;60588;-92
2023/01/14 01:57:03;;;;;;;56.90;21.30;;;;;;;-0.12;79.72;101686.20;107629;1269;73761;-93
2023/01/14 01:59:34;;;;;;;48.30;21.00;;;;;;;-0.08;79.41;101691.18;106453;1269;63964;-92
2023/01/14 02:02:01;;;;;;;43.30;20.70;;;;;;;-0.06;79.30;101693.25;107491;1270;71417;-91
2023/01/14 02:04:29;;;;;;;48.10;20.90;;;;;;;-0.04;79.27;101688.09;106762;1270;60506;-95
2023/01/14 02:06:57;;;;;;;42.30;20.70;;;;;;;-0.06;79.20;101690.84;107074;1269;60487;-89
2023/01/14 02:09:28;;;;;;;43.70;18.60;;;;;;;-0.08;78.99;101691.71;107842;1270;74838;-92
2023/01/14 02:15:25;;;;;;;44.00;18.80;;;;;;;-0.19;79.46;101695.29;104466;1289;600224;-93
2023/01/14 02:18:03;;;;;;;34.50;17.10;;;;;;;-0.15;80.02;101697.87;108115;1264;61890;-90
2023/01/14 02:20:45;;;;;;;43.70;20.00;;;;;;;-0.12;79.87;101687.23;106088;1270;60401;-93
2023/01/14 02:23:46;;;;;;;45.80;22.50;;;;;;;0.04;80.16;101696.18;107036;1254;74216;-92
2023/01/14 02:26:37;;;;;;;43.20;21.00;;;;;;;0.14;79.67;101700.64;106285;1258;62005;-94
2023/01/14 02:29:23;;;;;;;;;;;;;;;0.15;79.48;101697.55;107967;1251;689376;-92
2023/01/14 02:31:53;;;;;;;;;;;;;;;0.16;79.13;101699.98;107710;1251;60222;-93
2023/01/14 02:34:37;;;;;;;46.20;19.30;;;;;;;0.14;79.15;101698.07;107056;1250;60840;-95
2023/01/14 02:37:13;;;;;;;61.60;24.50;;;;;;;0.08;78.87;101696.88;107674;1250;73101;-92
2023/01/14 02:40:20;;;;;;;40.10;22.60;;;;;;;0.05;79.21;101694.13;107027;1250;66531;-94
2023/01/14 02:46:08;;;;;;;50.00;21.90;;;;;;;-0.02;79.18;101708.39;106262;1260;63218;-92
2023/01/14 02:48:35;;;;;;;;;;;;;;;-0.06;79.30;101703.39;105896;1263;62391;-96
2023/01/14 02:51:03;;;;;;;48.50;22.30;;;;;;;-0.02;79.48;101708.21;105491;1263;75161;-91
2023/01/14 02:53:30;;;;;;;52.20;22.10;;;;;;;-0.02;79.62;101706.33;106719;1257;65791;-92
2023/01/14 02:56:00;;;;;;;40.80;20.10;;;;;;;0.03;79.71;101709.41;108094;1257;73609;-94
2023/01/14 02:58:47;;;;;;;48.50;20.60;;;;;;;0.03;79.69;101706.33;106833;1273;60670;-91
2023/01/14 03:01:44;;;;;;;44.40;20.40;;;;;;;0.06;79.64;101705.81;107739;1258;62315;-88
2023/01/14 03:04:30;;;;;;;66.30;22.20;;;;;;;0.08;79.45;101707.70;108221;1257;74106;-92
2023/01/14 03:07:03;;;;;;;58.20;25.10;;;;;;;0.05;79.38;101706.67;106031;1264;66297;-93
2023/01/14 03:09:51;;;;;;;48.00;24.30;;;;;;;0.04;79.68;101708.72;107350;1260;73678;-93
2023/01/14 03:12:20;;;;;;;48.60;25.10;;;;;;;0.07;79.65;101706.84;107293;1263;60191;-93
2023/01/14 03:14:55;;;;;;;69.00;24.30;;;;;;;0.10;79.52;101700.83;107007;1262;62659;-93
2023/01/14 03:17:35;;;;;;;48.00;19.40;;;;;;;0.11;79.32;101701.00;106946;1257;74086;-93
2023/01/14 03:20:08;;;;;;;47.90;20.30;;;;;;;0.09;79.24;101698.07;106693;1263;64671;-92
2023/01/14 03:22:39;;;;;;;54.60;20.70;;;;;;;0.06;79.62;101697.38;106324;1262;74672;-92
2023/01/14 03:25:07;;;;;;;47.90;20.20;;;;;;;0.10;80.09;101696.17;107006;1256;61684;-93
2023/01/14 03:27:35;;;;;;;56.00;21.20;;;;;;;0.12;79.90;101692.57;106677;1251;63197;-93
2023/01/14 03:30:10;;;;;;;51.90;22.40;;;;;;;0.20;79.82;101696.19;106775;1258;75159;-94
2023/01/14 03:32:42;;;;;;;53.10;23.40;;;;;;;0.22;79.63;101697.57;107185;1251;65908;-95
2023/01/14 03:35:15;;;;;;;56.30;24.70;;;;;;;0.22;79.77;101693.95;106240;1260;74441;-92
2023/01/14 03:37:57;;;;;;;60.90;25.40;;;;;;;0.25;79.56;101701.53;106423;1254;60649;-91
2023/01/14 03:40:25;;;;;;;56.50;24.90;;;;;;;0.25;79.47;101701.52;106333;1269;61232;-93
2023/01/14 03:42:55;;;;;;;54.30;25.40;;;;;;;0.26;79.55;101702.55;106200;1255;74017;-92
2023/01/14 03:45:25;;;;;;;61.50;25.50;;;;;;;0.25;79.24;101697.73;106193;1261;66041;-94
2023/01/14 03:47:52;;;;;;;61.90;23.50;;;;;;;0.19;79.12;101694.46;106180;1260;74986;-93
2023/01/14 03:50:27;;;;;;;43.50;19.40;;;;;;;0.19;79.35;101693.26;106735;1259;63377;-94
2023/01/14 03:53:22;;;;;;;46.50;19.00;;;;;;;0.18;79.43;101691.55;107251;1254;62001;-95
2023/01/14 03:55:49;;;;;;;;;;;;;;;0.21;79.69;101694.13;109065;1259;74978;-90
2023/01/14 03:58:49;;;;;;;52.00;20.90;;;;;;;0.24;79.74;101698.25;107215;1254;63921;-95
2023/01/14 04:01:38;;;;;;;50.70;22.30;;;;;;;0.23;79.68;101698.08;106773;1254;72768;-93
2023/01/14 04:04:06;;;;;;;51.40;23.30;;;;;;;0.21;79.74;101698.60;108058;1252;61253;-93
2023/01/14 04:06:34;;;;;;;58.60;23.70;;;;;;;0.19;79.68;101700.48;109416;1255;61231;-93
2023/01/14 04:09:05;;;;;;;53.70;22.80;;;;;;;0.20;79.89;101696.52;107462;1251;74207;-93
2023/01/14 04:11:32;;;;;;;64.10;24.20;;;;;;;0.20;79.69;101699.27;107414;1257;65875;-93
2023/01/14 04:16:47;;;;;;;49.00;20.60;;;;;;;0.16;79.70;101696.36;108369;1251;62038;-93
2023/01/14 04:19:15;;;;;;;61.00;21.30;;;;;;;0.14;79.65;101698.06;108673;1250;61294;-92
2023/01/14 08:16:02;;;;;;;56.00;24.00;;;;;;;0.78;88.33;101720.91;103718;1288;614206;-86
2023/01/14 08:18:31;;;;;;;59.20;23.30;;;;;;;1.04;87.66;101720.86;105138;1273;115415;-88
2023/01/14 08:21:01;;;;;;;52.30;21.50;;;;;;;1.11;87.28;101714.30;104991;1270;61202;-87
2023/01/14 08:23:28;;;;;;;46.70;23.80;;;;;;;1.15;87.00;101712.04;105149;1267;73063;-90
2023/01/14 08:26:00;;;;;;;50.70;19.10;;;;;;;1.17;86.58;101706.52;106261;1257;66262;-86
2023/01/14 08:28:28;;;;;;;55.00;19.90;;;;;;;1.20;86.31;101702.55;105864;1263;74052;-88
2023/01/14 08:31:05;;;;;;;63.90;21.30;;;;;;;1.24;86.33;101704.95;105862;1265;61289;-89
2023/01/14 08:33:32;;;;;;;57.10;22.50;;;;;;;1.26;86.35;101707.52;105802;1262;62501;-88
2023/01/14 08:36:06;;;;;;;49.30;21.20;;;;;;;1.33;86.49;101707.48;105604;1257;73020;-88
2023/01/14 08:38:33;;;;;;;47.60;20.30;;;;;;;1.36;85.71;101711.96;105570;1257;66250;-87
2023/01/14 08:41:08;;;;;;;50.90;19.80;;;;;;;1.33;85.48;101710.76;105566;1258;74843;-88
2023/01/14 08:43:36;;;;;;;39.10;20.20;;;;;;;1.35;85.27;101710.07;105774;1257;60471;-86
2023/01/14 08:46:04;;;;;;;32.10;17.20;;;;;;;1.36;84.77;101709.55;105786;1257;62428;-86
2023/01/14 08:48:31;;;;;;;45.10;16.40;;;;;;;1.35;84.34;101704.03;105888;1257;73975;-87
2023/01/14 08:51:03;;;;;;;32.60;14.30;;;;;;;1.31;84.09;101703.71;105843;1265;64908;-88
2023/01/14 08:53:30;;;;;;;39.20;14.80;;;;;;;1.30;84.36;101705.97;105717;1263;74632;-87
2023/01/14 08:56:00;;;;;;;35.80;15.20;;;;;;;1.32;84.21;101704.05;105995;1263;60640;-87
2023/01/14 08:58:28;;;;;;;46.00;20.20;;;;;;;1.36;84.13;101697.66;106460;1257;61380;-87
2023/01/14 09:00:59;;;;;;;32.80;17.10;;;;;;;1.41;84.33;101694.89;106377;1259;74847;-88
2023/01/14 09:03:30;;;;;;;51.80;20.60;;;;;;;1.46;83.99;101693.14;106280;1256;65164;-87
2023/01/14 09:05:57;;;;;;;37.30;18.40;;;;;;;1.50;83.73;101696.39;106405;1254;73385;-86
2023/01/14 09:19:33;;;;;;;39.00;15.90;;;;;;;1.50;83.07;101682.43;106201;1260;73131;-88
2023/01/14 09:22:00;;;;;;;32.80;16.30;;;;;;;1.55;82.92;101683.96;106212;1259;61564;-85
2023/01/14 09:24:27;;;;;;;37.20;16.90;;;;;;;1.57;82.71;101682.39;106794;1254;61205;-88
2023/01/14 09:26:54;;;;;;;40.90;17.20;;;;;;;1.58;82.47;101681.01;106805;1258;73665;-89
2023/01/14 09:29:21;;;;;;;34.80;16.70;;;;;;;1.60;82.35;101678.58;106632;1254;65249;-88
2023/01/14 09:31:49;;;;;;;28.50;17.30;;;;;;;1.60;81.98;101679.80;106330;1259;73551;-88
2023/01/14 09:34:17;;;;;;;43.70;17.90;;;;;;;1.59;81.92;101678.77;106505;1257;61543;-89
2023/01/14 09:36:44;;;;;;;39.40;18.00;;;;;;;1.59;81.79;101680.48;106370;1259;61155;-86
2023/01/14 09:39:11;;;;;;;43.70;20.10;;;;;;;1.60;81.77;101680.81;106574;1254;74002;-87
2023/01/14 09:41:56;;;;;;;40.60;16.80;;;;;;;1.60;81.36;101676.34;106693;1253;64950;-88
2023/01/14 09:44:24;;;;;;;34.10;15.40;;;;;;;1.60;81.38;101676.52;106781;1254;74886;-87
2023/01/14 09:46:51;;;;;;;34.00;13.40;;;;;;;1.60;81.50;101675.14;106947;1254;62292;-87
2023/01/14 09:49:24;;;;;;;33.80;17.60;;;;;;;1.64;81.57;101676.66;106796;1255;61949;-86
2023/01/14 09:51:59;;;;;;;45.30;19.70;;;;;;;1.71;81.77;101675.25;106226;1254;74193;-87
2023/01/14 09:54:31;;;;;;;38.50;19.10;;;;;;;1.81;81.91;101675.00;106286;1259;65550;-89
2023/01/14 09:57:29;;;;;;;39.80;18.70;;;;;;;1.91;81.32;101671.66;106588;1255;73394;-86
2023/01/14 09:59:58;;;;;;;39.90;18.30;;;;;;;1.95;80.90;101671.11;106587;1258;60442;-88
2023/01/14 10:02:47;;;;;;;33.50;16.90;;;;;;;1.96;80.58;101669.04;106231;1254;61181;-88
2023/01/14 10:05:20;;;;;;;37.20;16.70;;;;;;;1.96;80.31;101667.48;106382;1258;73964;-90
2023/01/14 10:07:47;;;;;;;37.70;16.00;;;;;;;1.93;80.09;101668.38;106042;1254;64653;-89
2023/01/14 10:10:47;;;;;;;48.70;17.80;;;;;;;1.91;80.15;101664.59;106096;1260;74562;-89
2023/01/14 10:13:36;;;;;;;28.10;12.30;;;;;;;1.90;79.84;101664.08;105973;1265;63364;-89
2023/01/14 10:16:09;;;;;;;26.10;11.70;;;;;;;1.88;79.55;101660.81;106403;1262;61250;-88
2023/01/14 10:18:57;;;;;;;30.50;12.40;;;;;;;1.88;79.91;101655.65;108159;1260;73954;-87
2023/01/14 10:21:52;;;;;;;30.30;14.00;;;;;;;1.87;79.84;101651.70;108525;1260;64823;-86
2023/01/14 10:24:21;;;;;;;41.00;16.50;;;;;;;1.85;79.73;101648.26;109053;1259;73640;-87
2023/01/14 10:26:50;;;;;;;39.20;16.80;;;;;;;1.85;79.96;101644.29;108817;1259;60329;-89
2023/01/14 10:29:20;;;;;;;33.50;16.20;;;;;;;1.91;79.95;101641.66;108898;1260;61236;-89
2023/01/14 10:32:03;;;;;;;34.40;16.40;;;;;;;1.96;79.50;101641.27;108112;1259;74121;-91
2023/01/14 10:34:36;;;;;;;33.30;16.70;;;;;;;1.96;79.06;101645.23;107441;1259;65278;-89
2023/01/14 10:37:03;;;;;;;26.30;12.40;;;;;;;1.89;78.86;101638.56;107282;1260;74020;-87
2023/01/14 10:39:31;;;;;;;24.60;11.20;;;;;;;1.83;78.76;101638.77;106646;1264;62092;-88
2023/01/14 10:42:00;;;;;;;28.20;11.20;;;;;;;1.76;78.94;101634.17;106563;1260;62396;-88
2023/01/14 10:44:29;;;;;;;32.90;14.20;;;;;;;1.74;79.25;101636.43;107066;1264;74237;-88
2023/01/14 10:47:11;;;;;;;30.00;15.70;;;;;;;1.71;79.60;101630.94;106764;1260;64565;-88
2023/01/14 10:49:53;;;;;;;28.00;15.80;;;;;;;1.79;79.98;101634.50;107508;1260;74661;-88
2023/01/14 10:52:20;;;;;;;39.10;19.60;;;;;;;1.88;79.65;101631.34;107846;1257;61560;-88
2023/01/14 10:55:07;;;;;;;36.60;15.70;;;;;;;1.91;79.19;101633.55;107722;1255;61520;-89
2023/01/14 10:57:34;;;;;;;38.80;17.20;;;;;;;1.86;78.86;101629.97;107739;1259;73685;-87
2023/01/14 11:00:10;;;;;;;34.90;17.60;;;;;;;1.80;79.10;101634.33;107908;1259;64769;-90
2023/01/14 11:02:49;;;;;;;33.30;13.70;;;;;;;1.75;79.07;101632.64;108151;1254;73520;-88
2023/01/14 11:05:34;;;;;;;32.50;13.90;;;;;;;1.72;79.06;101628.17;107792;1260;62384;-88
2023/01/14 11:08:34;;;;;;;31.30;12.30;;;;;;;1.66;79.26;101626.49;108326;1255;61255;-88
2023/01/14 11:11:09;;;;;;;27.40;14.00;;;;;;;1.60;79.59;101624.81;107745;1257;75129;-88
2023/01/14 11:13:44;;;;;;;32.20;16.20;;;;;;;1.55;79.81;101629.84;107340;1255;64628;-88
2023/01/14 11:16:30;;;;;;;36.90;16.40;;;;;;;1.52;80.14;101629.52;108320;1254;73725;-88
2023/01/14 11:19:15;;;;;;;37.60;16.80;;;;;;;1.51;80.33;101632.95;109511;1254;58450;-88
2023/01/14 11:21:44;;;;;;;32.40;16.50;;;;;;;1.51;80.37;101630.55;109627;1254;61231;-88
2023/01/14 11:24:39;;;;;;;32.00;16.20;;;;;;;1.49;80.38;101630.92;109473;1254;74004;-89
2023/01/14 11:27:37;;;;;;;27.70;14.20;;;;;;;1.45;80.59;101633.17;109512;1254;64855;-89
2023/01/14 11:30:16;;;;;;;30.30;13.20;;;;;;;1.47;80.62;101633.00;109463;1254;73802;-89
2023/01/14 11:32:48;;;;;;;30.60;12.10;;;;;;;1.52;80.52;101634.52;109507;1254;62981;-89
2023/01/14 11:35:19;;;;;;;27.60;14.40;;;;;;;1.54;80.48;101634.67;109473;1254;61332;-88
2023/01/14 11:37:49;;;;;;;29.90;14.80;;;;;;;1.53;80.53;101632.43;109535;1259;73679;-88
2023/01/14 11:46:12;;;;;;;26.40;15.70;;;;;;;1.77;80.20;101627.45;106327;1291;599503;-90
2023/01/14 11:48:43;;;;;;;27.30;15.00;;;;;;;1.74;79.81;101632.81;108823;1263;61581;-89
2023/01/14 11:51:18;;;;;;;32.90;17.80;;;;;;;1.71;79.68;101633.88;108124;1263;61207;-89
2023/01/14 11:53:50;;;;;;;32.90;16.30;;;;;;;1.67;79.64;101633.20;106491;1257;73208;-89
2023/01/14 11:56:32;;;;;;;28.30;13.10;;;;;;;1.64;79.65;101627.19;105677;1258;64626;-89
2023/01/14 11:59:00;;;;;;;27.70;15.00;;;;;;;1.63;79.67;101628.07;105496;1258;605380;-87
2023/01/14 12:01:33;;;;;;;33.00;13.00;;;;;;;1.63;79.84;101629.45;105980;1259;62544;-90
2023/01/14 12:04:07;;;;;;;21.90;12.90;;;;;;;1.64;79.72;101629.25;105954;1254;61972;-89
2023/01/14 12:06:44;;;;;;;33.10;16.70;;;;;;;1.60;79.75;101626.52;106468;1252;71989;-88
2023/01/14 12:09:21;;;;;;;28.90;17.50;;;;;;;1.56;79.78;101631.91;106534;1254;64540;-89
2023/01/14 12:11:56;;;;;;;28.50;15.90;;;;;;;1.59;80.00;101628.44;106246;1252;72928;-88
2023/01/14 12:17:19;;;;;;;23.60;17.00;;;;;;;1.56;79.64;101624.84;106164;1252;62412;-89
2023/01/14 12:19:50;;;;;;;35.20;19.70;;;;;;;1.52;79.54;101623.84;108394;1251;73617;-88
2023/01/14 12:22:27;;;;;;;32.70;17.90;;;;;;;1.47;79.61;101627.64;109677;1251;64609;-88
2023/01/14 12:25:07;;;;;;;22.20;12.80;;;;;;;1.44;79.69;101625.94;109672;1253;73597;-88
2023/01/14 12:27:43;;;;;;;32.30;13.50;;;;;;;1.44;79.83;101631.10;109742;1253;61776;-87
2023/01/14 12:30:33;;;;;;;34.60;13.70;;;;;;;1.43;79.86;101632.16;109797;1252;61359;-89
2023/01/14 12:33:05;;;;;;;26.90;17.00;;;;;;;1.45;80.19;101637.83;107742;1254;73775;-87
2023/01/14 12:35:55;;;;;;;33.00;17.90;;;;;;;1.49;80.29;101637.98;106441;1254;65949;-90
2023/01/14 12:47:23;;;;;;;33.50;17.70;;;;;;;1.39;79.50;101646.13;106843;1253;73168;-89
2023/01/14 12:49:50;;;;;;;31.40;16.50;;;;;;;1.34;79.78;101648.91;106692;1252;65749;-87
2023/01/14 12:52:24;;;;;;;32.30;15.60;;;;;;;1.30;79.88;101650.14;106949;1253;74642;-90
2023/01/14 12:54:54;;;;;;;25.80;14.40;;;;;;;1.27;79.81;101657.23;106609;1253;63217;-89
2023/01/14 12:57:21;;;;;;;27.20;14.20;;;;;;;1.22;80.16;101656.39;106487;1253;59948;-89
2023/01/14 13:00:02;;;;;;;29.50;14.40;;;;;;;1.24;80.49;101656.73;106355;1254;75035;-89
2023/01/14 13:02:45;;;;;;;32.20;17.40;;;;;;;1.24;80.51;101656.02;106869;1252;65814;-89
2023/01/14 13:05:36;;;;;;;36.80;18.40;;;;;;;1.21;80.42;101660.52;106293;1253;74779;-89
2023/01/14 13:08:06;;;;;;;31.70;16.20;;;;;;;1.22;80.61;101663.27;106589;1254;60435;-88
2023/01/14 17:49:17;;;;;;;45.90;16.30;;;;;;;0.15;85.68;101704.95;111355;1244;72500;-94
2023/01/14 17:52:14;;;;;;;39.90;14.50;;;;;;;0.21;85.51;101702.04;111527;1243;62240;-90
2023/01/14 17:55:23;;;;;;;51.00;15.20;;;;;;;0.31;85.44;101703.92;111624;1238;71273;-92
2023/01/14 17:58:04;;;;;;;47.40;14.70;;;;;;;0.34;85.03;101697.39;111742;1240;61973;-93
2023/01/14 18:00:46;;;;;;;39.90;16.90;;;;;;;0.40;84.58;101701.52;111481;1239;58959;-94
2023/01/14 18:03:39;;;;;;;45.40;16.00;;;;;;;0.38;84.28;101701.01;111549;1235;71392;-93
2023/01/14 18:06:26;;;;;;;58.00;16.50;;;;;;;0.37;84.37;101702.72;112123;1236;63312;-92
2023/01/14 18:09:17;;;;;;;51.20;16.70;;;;;;;0.38;84.18;101698.77;112060;1237;71292;-93
2023/01/14 18:12:38;;;;;;;43.90;16.00;;;;;;;0.39;83.84;101700.48;112228;1235;58258;-92
2023/01/14 18:15:37;;;;;;;45.70;14.50;;;;;;;0.35;83.40;101702.89;112194;1240;58629;-94
2023/01/14 18:18:44;;;;;;;46.30;14.50;;;;;;;0.31;83.37;101702.04;112242;1234;72262;-94
2023/01/14 18:21:56;;;;;;;53.70;14.30;;;;;;;0.26;83.40;101696.19;112600;1231;62123;-93
2023/01/14 18:28:31;;;;;;;48.80;16.40;;;;;;;0.24;83.43;101702.03;112704;1231;57829;-95
2023/01/14 18:31:41;;;;;;;45.00;16.00;;;;;;;0.24;83.61;101696.02;111542;1231;59295;-93
2023/01/14 18:34:47;;;;;;;47.70;16.10;;;;;;;0.28;83.44;101694.80;111786;1230;72008;-95
2023/01/14 18:39:03;;;;;;;62.50;17.70;;;;;;;0.33;83.17;101697.05;106919;1279;611491;-93
2023/01/14 18:42:53;;;;;;;55.00;15.90;;;;;;;0.33;82.68;101702.54;108855;1262;60228;-92
2023/01/14 18:46:16;;;;;;;51.50;15.20;;;;;;;0.24;82.51;101701.69;108944;1263;59110;-93
2023/01/14 18:49:21;;;;;;;49.20;14.90;;;;;;;0.22;82.87;101706.50;109017;1257;73036;-92
2023/01/14 18:53:10;;;;;;;53.50;18.40;;;;;;;0.21;82.59;101705.30;105257;1258;5004562;-94
2023/01/14 18:56:47;;;;;;;64.10;18.90;;;;;;;0.16;82.54;101707.54;108610;1260;71376;-92
2023/01/14 18:59:44;;;;;;;49.40;16.20;;;;;;;0.09;82.49;101704.95;108764;1260;58521;-95
2023/01/14 19:03:07;;;;;;;43.80;14.40;;;;;;;0.03;82.45;101708.90;109008;1261;58938;-94
2023/01/14 19:06:12;;;;;;;52.20;16.00;;;;;;;-0.04;82.56;101706.14;108689;1259;72466;-94
2023/01/14 19:14:12;;;;;;;51.40;15.10;;;;;;;0.04;83.16;101702.54;107851;1259;71911;-93
2023/01/14 19:16:48;;;;;;;59.50;19.80;;;;;;;0.06;83.14;101700.64;108754;1258;59567;-93
2023/01/14 19:19:40;;;;;;;43.50;14.50;;;;;;;0.09;83.31;101701.50;108834;1258;60101;-93
2023/01/14 19:22:43;;;;;;;64.30;17.80;;;;;;;0.13;82.94;101705.45;107895;1259;71740;-94
2023/01/14 19:25:15;;;;;;;71.70;17.70;;;;;;;0.12;82.67;101707.02;108714;1258;64622;-94
2023/01/14 19:27:45;;;;;;;57.00;17.30;;;;;;;0.09;82.55;101705.64;107617;1258;72933;-93
2023/01/14 19:30:17;;;;;;;51.30;14.20;;;;;;;0.06;82.47;101704.95;108060;1259;61292;-94
2023/01/14 19:33:18;;;;;;;83.00;19.10;;;;;;;0.02;82.30;101707.17;108753;1259;61215;-94
2023/01/14 19:36:19;;;;;;;42.40;13.60;;;;;;;-0.04;82.36;101703.05;109116;1252;72240;-92
2023/01/14 19:39:10;;;;;;;52.70;16.00;;;;;;;-0.09;82.15;101704.08;109277;1257;63804;-92
2023/01/14 19:42:07;;;;;;;68.90;17.20;;;;;;;-0.13;82.54;101703.20;109241;1257;71741;-92
2023/01/14 19:45:36;;;;;;;68.20;17.70;;;;;;;-0.12;82.98;101707.67;108932;1265;57980;-93
2023/01/14 19:48:51;;;;;;;60.00;13.90;;;;;;;-0.08;82.95;101701.16;108825;1264;58793;-95
2023/01/14 20:04:17;;;;;;;63.50;16.60;;;;;;;-0.29;82.69;101703.33;108344;1264;61703;-93
2023/01/14 20:07:29;;;;;;;65.80;17.70;;;;;;;-0.29;82.81;101694.58;108568;1264;58906;-93
2023/01/14 20:10:26;;;;;;;55.80;17.80;;;;;;;-0.23;82.72;101703.52;108577;1270;72126;-94
2023/01/14 20:13:26;;;;;;;78.50;20.50;;;;;;;-0.21;82.65;101705.08;108252;1270;65024;-95
